createdAt,value
2022-11-29T00:00:15.759Z,97688.53
2022-11-29T00:04:17.789Z,97687.75
2022-11-29T00:08:20.820Z,97693.06
2022-11-29T00:12:22.867Z,97686.97
2022-11-29T00:16:24.947Z,97686.28
2022-11-29T00:20:26.978Z,97686.34
2022-11-29T00:24:31.601Z,97682.00
2022-11-29T00:28:35.248Z,97689.66
2022-11-29T00:32:37.448Z,97686.34
2022-11-29T00:36:40.342Z,97689.91
2022-11-29T00:40:42.339Z,97693.38
2022-11-29T00:44:44.623Z,97696.72
2022-11-29T00:48:46.940Z,97697.66
2022-11-29T00:52:49.505Z,97701.13
2022-11-29T00:56:51.583Z,97694.88
2022-11-29T01:00:54.391Z,97695.72
2022-11-29T01:04:56.530Z,97695.00
2022-11-29T01:08:58.532Z,97702.00
2022-11-29T01:13:00.538Z,97703.88
2022-11-29T01:17:02.723Z,97701.41
2022-11-29T01:21:17.079Z,97714.44
2022-11-29T01:25:19.454Z,97703.09
2022-11-29T01:29:21.461Z,97700.50
2022-11-29T01:33:23.507Z,97703.72
2022-11-29T01:37:25.622Z,97713.22
2022-11-29T01:41:30.526Z,97714.81
2022-11-29T01:45:36.938Z,97722.69
2022-11-29T01:49:43.260Z,97726.13
2022-11-29T01:53:45.800Z,97716.75
2022-11-29T01:57:48.122Z,97720.97
2022-11-29T02:01:51.102Z,97719.16
2022-11-29T02:05:54.852Z,97715.88
2022-11-29T02:09:56.907Z,97721.09
2022-11-29T02:14:18.765Z,97717.56
2022-11-29T02:18:56.319Z,97714.06
2022-11-29T02:23:26.337Z,97708.09
2022-11-29T02:28:02.466Z,97718.94
2022-11-29T02:32:23.037Z,97721.81
2022-11-29T02:36:53.043Z,97718.50
2022-11-29T02:41:30.062Z,97716.84
2022-11-29T02:45:35.094Z,97722.13
2022-11-29T02:49:53.480Z,97719.53
2022-11-29T02:54:20.570Z,97731.44
2022-11-29T02:58:37.639Z,97718.41
2022-11-29T03:02:49.381Z,97718.41
2022-11-29T03:07:02.971Z,97725.31
2022-11-29T03:11:16.356Z,97729.56
2022-11-29T03:15:29.761Z,97738.66
2022-11-29T03:20:04.641Z,97741.28
2022-11-29T03:24:21.064Z,97734.03
2022-11-29T03:28:33.138Z,97738.16
2022-11-29T03:32:47.406Z,97740.66
2022-11-29T03:36:58.359Z,97744.84
2022-11-29T03:41:31.505Z,97752.78
2022-11-29T03:45:45.429Z,97757.31
2022-11-29T03:50:01.356Z,97758.09
2022-11-29T03:54:10.311Z,97764.75
2022-11-29T03:58:40.787Z,97762.63
2022-11-29T04:02:58.216Z,97760.88
2022-11-29T04:07:18.700Z,97763.47
2022-11-29T04:11:36.376Z,97757.28
2022-11-29T04:15:56.956Z,97759.19
2022-11-29T04:20:46.817Z,97765.31
2022-11-29T04:25:18.337Z,97761.97
2022-11-29T04:29:32.437Z,97767.94
2022-11-29T04:33:59.345Z,97770.44
2022-11-29T04:38:41.280Z,97775.59
2022-11-29T04:43:21.031Z,97776.38
2022-11-29T04:47:33.511Z,97778.91
2022-11-29T04:52:11.023Z,97787.69
2022-11-29T04:56:28.061Z,97793.69
2022-11-29T05:00:35.180Z,97787.47
2022-11-29T05:04:50.570Z,97803.06
2022-11-29T05:09:18.031Z,97800.50
2022-11-29T05:13:54.242Z,97806.53
2022-11-29T05:17:56.967Z,97810.00
2022-11-29T05:22:45.941Z,97810.91
2022-11-29T05:27:28.274Z,97811.06
2022-11-29T05:31:42.354Z,97818.84
2022-11-29T05:36:01.274Z,97827.38
2022-11-29T05:40:12.207Z,97826.41
2022-11-29T05:44:23.982Z,97824.50
2022-11-29T05:48:53.967Z,97833.91
2022-11-29T05:53:35.643Z,97833.34
2022-11-29T05:57:59.065Z,97831.81
2022-11-29T06:02:17.716Z,97833.44
2022-11-29T06:06:31.015Z,97846.19
2022-11-29T06:10:39.876Z,97847.09
2022-11-29T06:15:17.126Z,97849.78
2022-11-29T06:19:53.272Z,97845.88
2022-11-29T06:24:18.573Z,97851.75
2022-11-29T06:28:48.846Z,97857.09
2022-11-29T06:33:09.793Z,97860.44
2022-11-29T06:37:48.394Z,97861.22
2022-11-29T06:41:50.387Z,97855.06
2022-11-29T06:46:03.039Z,97857.50
2022-11-29T06:50:26.926Z,97868.22
2022-11-29T06:54:32.048Z,97868.53
2022-11-29T06:59:04.896Z,97873.06
2022-11-29T07:03:25.090Z,97877.69
2022-11-29T07:07:27.474Z,97874.41
2022-11-29T07:11:29.878Z,97877.75
2022-11-29T07:15:32.326Z,97886.28
2022-11-29T07:19:49.575Z,97885.25
2022-11-29T07:24:26.247Z,97893.00
2022-11-29T07:28:49.310Z,97898.97
2022-11-29T07:33:18.696Z,97900.69
2022-11-29T07:37:33.702Z,97902.31
2022-11-29T07:41:46.300Z,97905.59
2022-11-29T07:45:48.754Z,97903.56
2022-11-29T07:49:50.751Z,97909.38
2022-11-29T07:53:52.823Z,97909.84
2022-11-29T07:57:55.435Z,97918.78
2022-11-29T08:01:58.703Z,97914.53
2022-11-29T08:06:01.292Z,97919.53
2022-11-29T08:10:06.226Z,97923.81
2022-11-29T08:14:08.268Z,97923.91
2022-11-29T08:18:10.251Z,97930.84
2022-11-29T08:22:12.481Z,97929.06
2022-11-29T08:26:16.216Z,97939.16
2022-11-29T08:30:21.971Z,97943.31
2022-11-29T08:34:24.594Z,97946.94
2022-11-29T08:38:26.600Z,97951.53
2022-11-29T08:42:28.573Z,97955.47
2022-11-29T08:46:50.525Z,97964.72
2022-11-29T08:50:54.374Z,97969.63
2022-11-29T08:55:00.320Z,97973.88
2022-11-29T08:59:05.706Z,97974.84
2022-11-29T09:03:26.223Z,97976.72
2022-11-29T09:07:28.321Z,97979.25
2022-11-29T09:11:32.352Z,97988.63
2022-11-29T09:15:34.518Z,97991.22
2022-11-29T09:19:36.558Z,97998.97
2022-11-29T09:23:40.005Z,98005.09
2022-11-29T09:27:42.036Z,98005.00
2022-11-29T09:31:47.444Z,98003.88
2022-11-29T09:35:49.537Z,98012.75
2022-11-29T09:39:51.550Z,98006.00
2022-11-29T09:44:24.863Z,98018.38
2022-11-29T09:48:39.075Z,98020.22
2022-11-29T09:53:18.617Z,98019.13
2022-11-29T09:57:23.814Z,98023.19
2022-11-29T10:01:34.149Z,98029.31
2022-11-29T10:05:50.201Z,98030.34
2022-11-29T10:09:57.441Z,98025.31
2022-11-29T10:14:09.133Z,98027.34
2022-11-29T10:18:19.118Z,98029.16
2022-11-29T10:22:53.437Z,98033.47
2022-11-29T10:26:55.585Z,98029.84
2022-11-29T10:31:07.931Z,98028.09
2022-11-29T10:35:16.063Z,98030.06
2022-11-29T10:39:45.296Z,98034.69
2022-11-29T10:43:48.559Z,98026.13
2022-11-29T10:47:52.628Z,98024.25
2022-11-29T10:51:54.644Z,98024.16
2022-11-29T10:56:08.797Z,98037.09
2022-11-29T11:00:11.807Z,98032.91
2022-11-29T11:04:45.241Z,98037.22
2022-11-29T11:08:51.509Z,98031.84
2022-11-29T11:13:18.804Z,98034.88
2022-11-29T11:17:25.990Z,98028.34
2022-11-29T11:21:28.169Z,98031.16
2022-11-29T11:25:37.089Z,98039.16
2022-11-29T11:29:43.376Z,98037.06
2022-11-29T11:33:46.254Z,98041.59
2022-11-29T11:37:57.524Z,98047.56
2022-11-29T11:42:21.203Z,98043.91
2022-11-29T11:46:43.720Z,98040.44
2022-11-29T11:50:52.660Z,98050.88
2022-11-29T11:54:59.209Z,98051.91
2022-11-29T11:59:01.350Z,98050.34
2022-11-29T12:03:04.839Z,98054.78
2022-11-29T12:07:38.703Z,98067.13
2022-11-29T12:12:00.497Z,98059.28
2022-11-29T12:16:10.362Z,98063.72
2022-11-29T12:20:32.377Z,98067.25
2022-11-29T12:24:44.460Z,98064.66
2022-11-29T12:28:47.408Z,98070.06
2022-11-29T12:33:14.290Z,98070.03
2022-11-29T12:37:25.650Z,98074.41
2022-11-29T12:41:30.465Z,98078.66
2022-11-29T12:45:32.436Z,98077.69
2022-11-29T12:50:11.864Z,98075.00
2022-11-29T12:54:16.660Z,98075.78
2022-11-29T12:58:45.758Z,98073.00
2022-11-29T13:03:10.145Z,98081.78
2022-11-29T13:07:43.263Z,98082.81
2022-11-29T13:11:57.473Z,98086.56
2022-11-29T13:16:31.240Z,98087.31
2022-11-29T13:20:43.853Z,98079.47
2022-11-29T13:24:53.537Z,98093.06
2022-11-29T13:28:56.983Z,98085.94
2022-11-29T13:33:11.620Z,98087.72
2022-11-29T13:37:30.155Z,98079.50
2022-11-29T13:41:40.815Z,98090.81
2022-11-29T13:46:13.589Z,98088.72
2022-11-29T13:50:44.771Z,98083.34
2022-11-29T13:54:47.180Z,98093.50
2022-11-29T13:58:53.637Z,98097.75
2022-11-29T14:02:57.327Z,98108.13
2022-11-29T14:07:04.051Z,98109.75
2022-11-29T14:11:26.815Z,98115.06
2022-11-29T14:15:32.022Z,98113.44
2022-11-29T14:19:36.531Z,98118.91
2022-11-29T14:23:42.929Z,98120.00
2022-11-29T14:27:53.616Z,98118.31
2022-11-29T14:31:56.116Z,98129.69
2022-11-29T14:36:31.424Z,98123.72
2022-11-29T14:40:36.264Z,98128.31
2022-11-29T14:44:44.711Z,98132.66
2022-11-29T14:48:58.543Z,98133.69
2022-11-29T14:53:02.121Z,98137.16
2022-11-29T14:57:45.968Z,98142.72
2022-11-29T15:01:49.235Z,98148.38
2022-11-29T15:05:58.205Z,98144.19
2022-11-29T15:10:04.092Z,98145.25
2022-11-29T15:14:43.837Z,98148.06
2022-11-29T15:19:20.374Z,98146.69
2022-11-29T15:23:22.397Z,98141.78
2022-11-29T15:27:24.761Z,98149.88
2022-11-29T15:31:26.863Z,98161.38
2022-11-29T15:35:29.157Z,98162.31
2022-11-29T15:39:36.186Z,98155.44
2022-11-29T15:43:38.699Z,98165.91
2022-11-29T15:47:40.713Z,98168.63
2022-11-29T15:51:43.178Z,98179.38
2022-11-29T15:55:49.354Z,98186.44
2022-11-29T15:59:55.658Z,98190.75
2022-11-29T16:03:58.432Z,98182.09
2022-11-29T16:08:04.493Z,98189.81
2022-11-29T16:12:15.444Z,98188.53
2022-11-29T16:16:22.104Z,98190.19
2022-11-29T16:20:25.998Z,98192.94
2022-11-29T16:24:28.092Z,98194.00
2022-11-29T16:28:42.901Z,98194.16
2022-11-29T16:32:48.340Z,98197.69
2022-11-29T16:37:07.452Z,98202.00
2022-11-29T16:41:22.716Z,98202.88
2022-11-29T16:45:39.071Z,98195.91
2022-11-29T16:49:41.182Z,98199.38
2022-11-29T16:53:50.221Z,98202.97
2022-11-29T16:57:52.529Z,98200.53
2022-11-29T17:01:55.881Z,98201.53
2022-11-29T17:05:57.968Z,98213.75
2022-11-29T17:10:00.105Z,98214.75
2022-11-29T17:14:02.130Z,98209.78
2022-11-29T17:18:04.210Z,98212.56
2022-11-29T17:22:06.236Z,98212.69
2022-11-29T17:26:09.262Z,98209.31
2022-11-29T17:30:11.856Z,98218.00
2022-11-29T17:34:13.990Z,98226.59
2022-11-29T17:38:16.013Z,98228.25
2022-11-29T17:42:18.057Z,98234.16
2022-11-29T17:46:31.119Z,98232.38
2022-11-29T17:50:33.197Z,98234.91
2022-11-29T17:54:35.987Z,98239.16
2022-11-29T17:58:38.876Z,98234.91
2022-11-29T18:02:41.035Z,98235.78
2022-11-29T18:06:43.668Z,98246.91
2022-11-29T18:10:45.693Z,98249.66
2022-11-29T18:14:50.086Z,98250.41
2022-11-29T18:19:00.404Z,98255.63
2022-11-29T18:23:07.649Z,98263.25
2022-11-29T18:27:10.122Z,98263.94
2022-11-29T18:31:18.471Z,98253.66
2022-11-29T18:35:20.605Z,98259.88
2022-11-29T18:39:24.911Z,98264.25
2022-11-29T18:43:26.980Z,98267.66
2022-11-29T18:47:32.776Z,98277.19
2022-11-29T18:51:36.610Z,98274.66
2022-11-29T18:55:38.648Z,98273.88
2022-11-29T18:59:40.607Z,98275.69
2022-11-29T19:03:45.157Z,98282.63
2022-11-29T19:07:47.235Z,98281.06
2022-11-29T19:11:50.408Z,98281.91
2022-11-29T19:15:54.025Z,98276.69
2022-11-29T19:19:57.338Z,98271.66
2022-11-29T19:24:01.477Z,98280.38
2022-11-29T19:28:03.547Z,98288.09
2022-11-29T19:32:06.710Z,98286.34
2022-11-29T19:36:12.702Z,98288.94
2022-11-29T19:40:14.804Z,98296.81
2022-11-29T19:44:16.862Z,98295.16
2022-11-29T19:48:18.865Z,98293.56
2022-11-29T19:52:20.879Z,98296.34
2022-11-29T19:56:23.786Z,98303.47
2022-11-29T20:00:25.959Z,98300.00
2022-11-29T20:04:27.981Z,98304.38
2022-11-29T20:08:31.166Z,98311.38
2022-11-29T20:12:33.633Z,98307.97
2022-11-29T20:16:37.807Z,98314.16
2022-11-29T20:20:40.152Z,98308.19
2022-11-29T20:24:45.629Z,98317.91
2022-11-29T20:28:47.961Z,98312.88
2022-11-29T20:32:50.063Z,98311.25
2022-11-29T20:37:07.433Z,98314.00
2022-11-29T20:41:24.814Z,98313.16
2022-11-29T20:45:27.328Z,98316.63
2022-11-29T20:49:29.529Z,98319.31
2022-11-29T20:53:40.392Z,98315.13
2022-11-29T20:57:42.388Z,98317.81
2022-11-29T21:01:44.397Z,98325.72
2022-11-29T21:05:47.377Z,98324.00
2022-11-29T21:09:49.378Z,98333.34
2022-11-29T21:13:51.717Z,98326.44
2022-11-29T21:17:54.213Z,98328.34
2022-11-29T21:22:33.921Z,98329.41
2022-11-29T21:26:43.642Z,98331.94
2022-11-29T21:30:45.931Z,98324.13
2022-11-29T21:34:48.308Z,98340.59
2022-11-29T21:38:54.927Z,98337.81
2022-11-29T21:42:57.411Z,98336.28
2022-11-29T21:46:59.435Z,98346.69
2022-11-29T21:51:06.974Z,98351.84
2022-11-29T21:55:09.192Z,98344.06
2022-11-29T21:59:11.183Z,98344.06
2022-11-29T22:03:13.212Z,98338.78
2022-11-29T22:07:15.224Z,98344.84
2022-11-29T22:11:34.162Z,98342.03
2022-11-29T22:15:36.251Z,98341.91
2022-11-29T22:19:38.437Z,98340.31
2022-11-29T22:23:40.568Z,98337.03
2022-11-29T22:27:42.631Z,98334.34
2022-11-29T22:31:46.710Z,98331.81
2022-11-29T22:35:48.761Z,98341.56
2022-11-29T22:39:50.819Z,98340.88
2022-11-29T22:43:53.041Z,98342.00
2022-11-29T22:47:55.029Z,98346.16
2022-11-29T22:51:57.083Z,98339.97
2022-11-29T22:56:01.073Z,98339.91
2022-11-29T23:00:04.651Z,98338.34
2022-11-29T23:04:08.470Z,98349.66
2022-11-29T23:08:10.472Z,98348.69
2022-11-29T23:12:12.619Z,98339.19
2022-11-29T23:16:17.246Z,98346.25
2022-11-29T23:20:19.357Z,98352.41
2022-11-29T23:24:21.361Z,98359.31
2022-11-29T23:28:24.400Z,98360.19
2022-11-29T23:32:26.620Z,98364.50
2022-11-29T23:36:28.989Z,98364.31
2022-11-29T23:40:31.046Z,98366.81
2022-11-29T23:44:33.111Z,98360.63
2022-11-29T23:48:35.358Z,98369.22
2022-11-29T23:52:37.967Z,98373.38
2022-11-29T23:56:39.984Z,98365.53
